sensor_id;sensor_type;location;lat;lon;timestamp;P1;durP1;ratioP1;P2;durP2;ratioP2
24305;SDS011;12423;48.768;8.850;2024-03-22T00:01:54;661.85;;;405.88;;
24305;SDS011;12423;48.768;8.850;2024-03-22T00:04:21;666.00;;;414.80;;
24305;SDS011;12423;48.768;8.850;2024-03-22T00:06:47;658.65;;;406.85;;
24305;SDS011;12423;48.768;8.850;2024-03-22T00:09:15;659.10;;;400.83;;
24305;SDS011;12423;48.768;8.850;2024-03-22T00:11:41;659.57;;;402.83;;
24305;SDS011;12423;48.768;8.850;2024-03-22T00:14:08;663.15;;;399.23;;
24305;SDS011;12423;48.768;8.850;2024-03-22T00:16:35;664.87;;;409.87;;
24305;SDS011;12423;48.768;8.850;2024-03-22T00:19:02;660.40;;;404.70;;
24305;SDS011;12423;48.768;8.850;2024-03-22T00:21:28;659.17;;;397.67;;
24305;SDS011;12423;48.768;8.850;2024-03-22T00:23:54;664.72;;;409.73;;
24305;SDS011;12423;48.768;8.850;2024-03-22T00:26:20;661.60;;;404.50;;
24305;SDS011;12423;48.768;8.850;2024-03-22T00:28:46;660.80;;;403.52;;
24305;SDS011;12423;48.768;8.850;2024-03-22T00:31:12;658.70;;;389.03;;
24305;SDS011;12423;48.768;8.850;2024-03-22T00:33:40;656.30;;;386.67;;
24305;SDS011;12423;48.768;8.850;2024-03-22T00:36:06;658.28;;;390.15;;
24305;SDS011;12423;48.768;8.850;2024-03-22T00:38:33;658.05;;;393.05;;
24305;SDS011;12423;48.768;8.850;2024-03-22T00:40:58;657.43;;;386.70;;
24305;SDS011;12423;48.768;8.850;2024-03-22T00:43:25;655.05;;;393.17;;
24305;SDS011;12423;48.768;8.850;2024-03-22T00:45:50;655.33;;;382.07;;
24305;SDS011;12423;48.768;8.850;2024-03-22T00:48:17;653.88;;;385.65;;
24305;SDS011;12423;48.768;8.850;2024-03-22T00:50:44;658.38;;;387.20;;
24305;SDS011;12423;48.768;8.850;2024-03-22T00:53:11;652.55;;;379.10;;
24305;SDS011;12423;48.768;8.850;2024-03-22T00:55:38;653.75;;;384.80;;
24305;SDS011;12423;48.768;8.850;2024-03-22T00:58:04;653.40;;;375.48;;
24305;SDS011;12423;48.768;8.850;2024-03-22T01:00:30;657.42;;;390.42;;
24305;SDS011;12423;48.768;8.850;2024-03-22T01:02:56;653.30;;;385.20;;
24305;SDS011;12423;48.768;8.850;2024-03-22T01:05:22;652.03;;;378.80;;
24305;SDS011;12423;48.768;8.850;2024-03-22T01:07:50;650.90;;;376.23;;
24305;SDS011;12423;48.768;8.850;2024-03-22T01:10:15;651.60;;;385.80;;
24305;SDS011;12423;48.768;8.850;2024-03-22T01:12:42;655.25;;;385.20;;
24305;SDS011;12423;48.768;8.850;2024-03-22T01:15:08;650.50;;;379.17;;
24305;SDS011;12423;48.768;8.850;2024-03-22T01:17:34;653.20;;;387.23;;
24305;SDS011;12423;48.768;8.850;2024-03-22T01:20:00;647.87;;;374.03;;
24305;SDS011;12423;48.768;8.850;2024-03-22T01:22:26;647.53;;;366.83;;
24305;SDS011;12423;48.768;8.850;2024-03-22T01:24:53;647.60;;;358.10;;
24305;SDS011;12423;48.768;8.850;2024-03-22T01:27:20;647.45;;;357.50;;
24305;SDS011;12423;48.768;8.850;2024-03-22T01:29:45;649.00;;;368.73;;
24305;SDS011;12423;48.768;8.850;2024-03-22T01:32:12;647.05;;;361.95;;
24305;SDS011;12423;48.768;8.850;2024-03-22T01:34:38;647.15;;;360.50;;
24305;SDS011;12423;48.768;8.850;2024-03-22T01:37:04;647.05;;;362.10;;
24305;SDS011;12423;48.768;8.850;2024-03-22T01:39:30;647.97;;;371.98;;
24305;SDS011;12423;48.768;8.850;2024-03-22T01:41:58;647.75;;;370.20;;
24305;SDS011;12423;48.768;8.850;2024-03-22T01:44:26;649.88;;;375.10;;
24305;SDS011;12423;48.768;8.850;2024-03-22T01:46:53;649.78;;;371.30;;
24305;SDS011;12423;48.768;8.850;2024-03-22T01:49:19;646.25;;;364.73;;
24305;SDS011;12423;48.768;8.850;2024-03-22T01:51:46;646.33;;;358.55;;
24305;SDS011;12423;48.768;8.850;2024-03-22T01:54:12;646.80;;;357.85;;
24305;SDS011;12423;48.768;8.850;2024-03-22T01:56:38;648.40;;;358.27;;
24305;SDS011;12423;48.768;8.850;2024-03-22T01:59:07;644.72;;;350.52;;
24305;SDS011;12423;48.768;8.850;2024-03-22T02:01:33;646.60;;;362.00;;
24305;SDS011;12423;48.768;8.850;2024-03-22T02:04:00;648.10;;;354.95;;
24305;SDS011;12423;48.768;8.850;2024-03-22T02:06:25;643.80;;;353.10;;
24305;SDS011;12423;48.768;8.850;2024-03-22T02:08:52;643.72;;;351.42;;
24305;SDS011;12423;48.768;8.850;2024-03-22T02:11:17;645.08;;;346.65;;
24305;SDS011;12423;48.768;8.850;2024-03-22T02:13:45;644.95;;;347.70;;
24305;SDS011;12423;48.768;8.850;2024-03-22T02:16:11;639.78;;;341.25;;
24305;SDS011;12423;48.768;8.850;2024-03-22T02:18:38;646.97;;;345.97;;
24305;SDS011;12423;48.768;8.850;2024-03-22T02:21:04;643.55;;;342.20;;
24305;SDS011;12423;48.768;8.850;2024-03-22T02:23:33;638.05;;;331.23;;
24305;SDS011;12423;48.768;8.850;2024-03-22T02:25:59;640.90;;;332.20;;
24305;SDS011;12423;48.768;8.850;2024-03-22T02:28:25;637.67;;;331.02;;
24305;SDS011;12423;48.768;8.850;2024-03-22T02:30:51;638.93;;;330.23;;
24305;SDS011;12423;48.768;8.850;2024-03-22T02:33:17;635.92;;;322.77;;
24305;SDS011;12423;48.768;8.850;2024-03-22T02:35:43;636.72;;;326.90;;
24305;SDS011;12423;48.768;8.850;2024-03-22T02:38:12;636.35;;;316.13;;
24305;SDS011;12423;48.768;8.850;2024-03-22T02:40:39;638.77;;;330.60;;
24305;SDS011;12423;48.768;8.850;2024-03-22T02:43:05;634.10;;;318.45;;
24305;SDS011;12423;48.768;8.850;2024-03-22T02:45:31;636.50;;;328.17;;
24305;SDS011;12423;48.768;8.850;2024-03-22T02:47:58;638.40;;;333.88;;
24305;SDS011;12423;48.768;8.850;2024-03-22T02:50:24;636.97;;;330.50;;
24305;SDS011;12423;48.768;8.850;2024-03-22T02:52:50;640.00;;;336.30;;
24305;SDS011;12423;48.768;8.850;2024-03-22T02:59:11;638.25;;;334.25;;
24305;SDS011;12423;48.768;8.850;2024-03-22T03:01:37;637.00;;;326.85;;
24305;SDS011;12423;48.768;8.850;2024-03-22T03:04:03;642.00;;;332.38;;
24305;SDS011;12423;48.768;8.850;2024-03-22T03:06:29;640.70;;;337.80;;
24305;SDS011;12423;48.768;8.850;2024-03-22T03:08:55;640.83;;;334.87;;
24305;SDS011;12423;48.768;8.850;2024-03-22T03:11:21;637.97;;;324.65;;
24305;SDS011;12423;48.768;8.850;2024-03-22T03:13:47;638.30;;;333.20;;
24305;SDS011;12423;48.768;8.850;2024-03-22T03:16:15;641.28;;;342.85;;
24305;SDS011;12423;48.768;8.850;2024-03-22T03:18:40;642.25;;;348.10;;
24305;SDS011;12423;48.768;8.850;2024-03-22T03:21:07;640.07;;;338.17;;
24305;SDS011;12423;48.768;8.850;2024-03-22T03:23:33;637.78;;;330.48;;
24305;SDS011;12423;48.768;8.850;2024-03-22T03:26:00;635.90;;;328.83;;
24305;SDS011;12423;48.768;8.850;2024-03-22T03:28:25;637.73;;;332.23;;
24305;SDS011;12423;48.768;8.850;2024-03-22T03:30:53;638.10;;;337.27;;
24305;SDS011;12423;48.768;8.850;2024-03-22T03:33:19;639.15;;;341.42;;
24305;SDS011;12423;48.768;8.850;2024-03-22T03:35:46;640.28;;;340.33;;
24305;SDS011;12423;48.768;8.850;2024-03-22T03:38:12;639.10;;;337.03;;
24305;SDS011;12423;48.768;8.850;2024-03-22T03:40:38;638.85;;;337.77;;
24305;SDS011;12423;48.768;8.850;2024-03-22T03:43:04;638.13;;;336.77;;
24305;SDS011;12423;48.768;8.850;2024-03-22T03:45:31;636.40;;;337.08;;
24305;SDS011;12423;48.768;8.850;2024-03-22T03:47:56;640.50;;;337.23;;
24305;SDS011;12423;48.768;8.850;2024-03-22T03:50:24;639.60;;;335.35;;
24305;SDS011;12423;48.768;8.850;2024-03-22T03:52:50;639.58;;;343.67;;
24305;SDS011;12423;48.768;8.850;2024-03-22T03:55:16;638.88;;;342.02;;
24305;SDS011;12423;48.768;8.850;2024-03-22T03:57:42;639.20;;;343.90;;
24305;SDS011;12423;48.768;8.850;2024-03-22T04:00:09;643.07;;;351.20;;
24305;SDS011;12423;48.768;8.850;2024-03-22T04:02:34;638.20;;;335.10;;
24305;SDS011;12423;48.768;8.850;2024-03-22T04:05:01;641.72;;;344.02;;
24305;SDS011;12423;48.768;8.850;2024-03-22T04:07:28;640.23;;;343.33;;
24305;SDS011;12423;48.768;8.850;2024-03-22T04:09:54;638.40;;;342.73;;
24305;SDS011;12423;48.768;8.850;2024-03-22T04:12:20;644.50;;;358.27;;
24305;SDS011;12423;48.768;8.850;2024-03-22T04:14:46;641.70;;;348.02;;
24305;SDS011;12423;48.768;8.850;2024-03-22T04:17:12;642.90;;;350.27;;
24305;SDS011;12423;48.768;8.850;2024-03-22T04:19:39;641.47;;;349.80;;
24305;SDS011;12423;48.768;8.850;2024-03-22T04:22:05;646.00;;;343.23;;
24305;SDS011;12423;48.768;8.850;2024-03-22T04:24:32;640.95;;;341.02;;
24305;SDS011;12423;48.768;8.850;2024-03-22T04:26:58;639.78;;;348.75;;
24305;SDS011;12423;48.768;8.850;2024-03-22T04:29:25;638.10;;;348.67;;
24305;SDS011;12423;48.768;8.850;2024-03-22T04:31:50;640.50;;;349.57;;
24305;SDS011;12423;48.768;8.850;2024-03-22T04:34:17;641.95;;;352.67;;
24305;SDS011;12423;48.768;8.850;2024-03-22T04:36:42;638.28;;;344.38;;
24305;SDS011;12423;48.768;8.850;2024-03-22T04:39:09;644.05;;;363.80;;
24305;SDS011;12423;48.768;8.850;2024-03-22T04:41:38;643.40;;;361.50;;
24305;SDS011;12423;48.768;8.850;2024-03-22T04:44:05;643.63;;;362.43;;
24305;SDS011;12423;48.768;8.850;2024-03-22T04:46:31;645.75;;;360.52;;
24305;SDS011;12423;48.768;8.850;2024-03-22T04:48:57;643.03;;;356.98;;
24305;SDS011;12423;48.768;8.850;2024-03-22T04:51:23;640.15;;;352.38;;
24305;SDS011;12423;48.768;8.850;2024-03-22T04:53:50;641.30;;;348.33;;
24305;SDS011;12423;48.768;8.850;2024-03-22T04:56:15;642.87;;;359.67;;
24305;SDS011;12423;48.768;8.850;2024-03-22T04:58:43;643.33;;;368.40;;
24305;SDS011;12423;48.768;8.850;2024-03-22T05:01:09;644.78;;;363.58;;
24305;SDS011;12423;48.768;8.850;2024-03-22T05:03:38;642.63;;;361.80;;
24305;SDS011;12423;48.768;8.850;2024-03-22T05:06:03;646.45;;;371.02;;
24305;SDS011;12423;48.768;8.850;2024-03-22T05:08:31;645.08;;;373.17;;
24305;SDS011;12423;48.768;8.850;2024-03-22T05:10:57;646.72;;;374.45;;
24305;SDS011;12423;48.768;8.850;2024-03-22T05:13:24;649.00;;;377.45;;
24305;SDS011;12423;48.768;8.850;2024-03-22T05:15:50;646.33;;;366.88;;
24305;SDS011;12423;48.768;8.850;2024-03-22T05:18:17;643.38;;;369.85;;
24305;SDS011;12423;48.768;8.850;2024-03-22T05:20:43;640.53;;;351.17;;
24305;SDS011;12423;48.768;8.850;2024-03-22T05:23:10;639.50;;;347.37;;
24305;SDS011;12423;48.768;8.850;2024-03-22T05:25:35;639.08;;;350.48;;
24305;SDS011;12423;48.768;8.850;2024-03-22T05:28:02;643.20;;;354.92;;
24305;SDS011;12423;48.768;8.850;2024-03-22T05:30:28;641.40;;;356.40;;
24305;SDS011;12423;48.768;8.850;2024-03-22T05:32:56;640.55;;;355.15;;
24305;SDS011;12423;48.768;8.850;2024-03-22T05:35:21;637.28;;;341.70;;
24305;SDS011;12423;48.768;8.850;2024-03-22T05:37:48;641.70;;;350.25;;
24305;SDS011;12423;48.768;8.850;2024-03-22T05:40:14;637.47;;;341.48;;
24305;SDS011;12423;48.768;8.850;2024-03-22T05:42:41;641.17;;;345.95;;
24305;SDS011;12423;48.768;8.850;2024-03-22T05:45:07;639.60;;;344.33;;
24305;SDS011;12423;48.768;8.850;2024-03-22T05:47:34;637.10;;;336.77;;
24305;SDS011;12423;48.768;8.850;2024-03-22T05:50:01;640.17;;;342.93;;
24305;SDS011;12423;48.768;8.850;2024-03-22T05:52:27;638.63;;;345.77;;
24305;SDS011;12423;48.768;8.850;2024-03-22T05:54:53;638.93;;;341.40;;
24305;SDS011;12423;48.768;8.850;2024-03-22T05:57:20;639.63;;;343.48;;
24305;SDS011;12423;48.768;8.850;2024-03-22T05:59:46;634.20;;;327.67;;
24305;SDS011;12423;48.768;8.850;2024-03-22T06:02:14;639.55;;;343.00;;
24305;SDS011;12423;48.768;8.850;2024-03-22T06:04:40;637.33;;;341.35;;
24305;SDS011;12423;48.768;8.850;2024-03-22T06:07:08;637.22;;;335.27;;
24305;SDS011;12423;48.768;8.850;2024-03-22T06:09:35;640.63;;;346.85;;
24305;SDS011;12423;48.768;8.850;2024-03-22T06:12:11;636.97;;;339.92;;
24305;SDS011;12423;48.768;8.850;2024-03-22T06:14:36;637.83;;;331.17;;
24305;SDS011;12423;48.768;8.850;2024-03-22T06:17:03;639.08;;;341.70;;
24305;SDS011;12423;48.768;8.850;2024-03-22T06:19:28;641.83;;;350.80;;
24305;SDS011;12423;48.768;8.850;2024-03-22T06:21:55;638.67;;;342.10;;
24305;SDS011;12423;48.768;8.850;2024-03-22T06:24:23;634.47;;;327.75;;
24305;SDS011;12423;48.768;8.850;2024-03-22T06:26:49;637.65;;;338.60;;
24305;SDS011;12423;48.768;8.850;2024-03-22T06:29:15;640.67;;;349.30;;
24305;SDS011;12423;48.768;8.850;2024-03-22T06:31:42;641.70;;;353.60;;
24305;SDS011;12423;48.768;8.850;2024-03-22T06:34:08;647.53;;;357.88;;
24305;SDS011;12423;48.768;8.850;2024-03-22T06:36:34;636.08;;;335.40;;
24305;SDS011;12423;48.768;8.850;2024-03-22T06:39:00;641.25;;;353.55;;
24305;SDS011;12423;48.768;8.850;2024-03-22T06:41:29;641.00;;;353.17;;
24305;SDS011;12423;48.768;8.850;2024-03-22T06:43:54;642.97;;;351.30;;
24305;SDS011;12423;48.768;8.850;2024-03-22T06:46:21;646.28;;;353.90;;
24305;SDS011;12423;48.768;8.850;2024-03-22T06:48:48;646.67;;;367.98;;
24305;SDS011;12423;48.768;8.850;2024-03-22T06:51:14;650.70;;;375.83;;
24305;SDS011;12423;48.768;8.850;2024-03-22T06:53:40;647.05;;;373.67;;
24305;SDS011;12423;48.768;8.850;2024-03-22T06:56:06;652.83;;;385.60;;
24305;SDS011;12423;48.768;8.850;2024-03-22T06:58:36;648.05;;;375.48;;
24305;SDS011;12423;48.768;8.850;2024-03-22T07:01:03;653.33;;;377.83;;
24305;SDS011;12423;48.768;8.850;2024-03-22T07:03:29;657.05;;;383.73;;
24305;SDS011;12423;48.768;8.850;2024-03-22T07:05:56;650.20;;;388.15;;
24305;SDS011;12423;48.768;8.850;2024-03-22T07:08:22;654.50;;;405.80;;
24305;SDS011;12423;48.768;8.850;2024-03-22T07:10:50;657.83;;;411.48;;
24305;SDS011;12423;48.768;8.850;2024-03-22T07:13:16;657.53;;;410.58;;
24305;SDS011;12423;48.768;8.850;2024-03-22T07:15:45;658.40;;;408.60;;
24305;SDS011;12423;48.768;8.850;2024-03-22T07:18:11;659.30;;;422.40;;
24305;SDS011;12423;48.768;8.850;2024-03-22T07:20:38;659.28;;;421.73;;
24305;SDS011;12423;48.768;8.850;2024-03-22T07:23:03;662.28;;;430.73;;
24305;SDS011;12423;48.768;8.850;2024-03-22T07:25:30;659.17;;;429.30;;
24305;SDS011;12423;48.768;8.850;2024-03-22T07:27:56;664.93;;;444.70;;
24305;SDS011;12423;48.768;8.850;2024-03-22T07:30:22;665.72;;;458.95;;
24305;SDS011;12423;48.768;8.850;2024-03-22T07:32:49;667.05;;;454.35;;
24305;SDS011;12423;48.768;8.850;2024-03-22T07:35:17;669.13;;;465.65;;
24305;SDS011;12423;48.768;8.850;2024-03-22T07:37:42;668.30;;;471.73;;
24305;SDS011;12423;48.768;8.850;2024-03-22T07:40:10;671.53;;;482.08;;
24305;SDS011;12423;48.768;8.850;2024-03-22T07:42:35;670.47;;;476.17;;
24305;SDS011;12423;48.768;8.850;2024-03-22T07:45:02;673.70;;;485.15;;
24305;SDS011;12423;48.768;8.850;2024-03-22T07:47:28;675.35;;;497.95;;
24305;SDS011;12423;48.768;8.850;2024-03-22T07:49:56;679.47;;;504.25;;
24305;SDS011;12423;48.768;8.850;2024-03-22T07:52:21;677.30;;;506.07;;
24305;SDS011;12423;48.768;8.850;2024-03-22T07:54:49;678.83;;;515.80;;
24305;SDS011;12423;48.768;8.850;2024-03-22T07:57:15;681.60;;;516.37;;
24305;SDS011;12423;48.768;8.850;2024-03-22T07:59:42;687.47;;;547.60;;
24305;SDS011;12423;48.768;8.850;2024-03-22T08:02:09;682.15;;;530.10;;
24305;SDS011;12423;48.768;8.850;2024-03-22T08:04:35;685.30;;;541.88;;
24305;SDS011;12423;48.768;8.850;2024-03-22T08:07:02;687.50;;;555.33;;
24305;SDS011;12423;48.768;8.850;2024-03-22T08:09:29;689.53;;;560.33;;
24305;SDS011;12423;48.768;8.850;2024-03-22T08:11:55;690.73;;;567.10;;
24305;SDS011;12423;48.768;8.850;2024-03-22T08:14:22;688.70;;;552.63;;
24305;SDS011;12423;48.768;8.850;2024-03-22T08:16:47;694.50;;;572.95;;
24305;SDS011;12423;48.768;8.850;2024-03-22T08:19:14;698.72;;;578.17;;
24305;SDS011;12423;48.768;8.850;2024-03-22T08:21:39;692.58;;;573.03;;
24305;SDS011;12423;48.768;8.850;2024-03-22T08:24:07;690.63;;;580.78;;
24305;SDS011;12423;48.768;8.850;2024-03-22T08:26:33;696.38;;;592.53;;
24305;SDS011;12423;48.768;8.850;2024-03-22T08:28:59;698.97;;;608.10;;
24305;SDS011;12423;48.768;8.850;2024-03-22T08:31:25;698.23;;;611.77;;
24305;SDS011;12423;48.768;8.850;2024-03-22T08:33:53;700.90;;;609.22;;
24305;SDS011;12423;48.768;8.850;2024-03-22T08:36:21;705.58;;;627.17;;
24305;SDS011;12423;48.768;8.850;2024-03-22T08:38:47;715.60;;;637.20;;
24305;SDS011;12423;48.768;8.850;2024-03-22T08:41:14;723.53;;;645.13;;
24305;SDS011;12423;48.768;8.850;2024-03-22T08:43:41;748.00;;;668.78;;
24305;SDS011;12423;48.768;8.850;2024-03-22T08:46:06;749.70;;;670.63;;
24305;SDS011;12423;48.768;8.850;2024-03-22T08:48:33;764.97;;;685.28;;
24305;SDS011;12423;48.768;8.850;2024-03-22T08:50:59;781.78;;;701.85;;
24305;SDS011;12423;48.768;8.850;2024-03-22T08:53:25;785.83;;;705.75;;
24305;SDS011;12423;48.768;8.850;2024-03-22T08:55:51;793.75;;;713.40;;
24305;SDS011;12423;48.768;8.850;2024-03-22T08:58:18;799.08;;;718.50;;
24305;SDS011;12423;48.768;8.850;2024-03-22T09:00:44;800.95;;;720.35;;
24305;SDS011;12423;48.768;8.850;2024-03-22T09:03:11;801.40;;;721.13;;
24305;SDS011;12423;48.768;8.850;2024-03-22T09:05:36;821.90;;;740.22;;
24305;SDS011;12423;48.768;8.850;2024-03-22T09:08:03;823.22;;;741.42;;
24305;SDS011;12423;48.768;8.850;2024-03-22T09:10:29;825.33;;;743.73;;
24305;SDS011;12423;48.768;8.850;2024-03-22T09:12:56;832.33;;;750.55;;
24305;SDS011;12423;48.768;8.850;2024-03-22T09:15:23;844.73;;;762.37;;
24305;SDS011;12423;48.768;8.850;2024-03-22T09:17:51;838.00;;;756.42;;
24305;SDS011;12423;48.768;8.850;2024-03-22T09:20:16;849.63;;;767.55;;
24305;SDS011;12423;48.768;8.850;2024-03-22T09:22:43;854.20;;;772.40;;
24305;SDS011;12423;48.768;8.850;2024-03-22T09:25:08;870.50;;;787.60;;
24305;SDS011;12423;48.768;8.850;2024-03-22T09:27:35;858.38;;;776.58;;
24305;SDS011;12423;48.768;8.850;2024-03-22T09:30:01;881.23;;;798.47;;
24305;SDS011;12423;48.768;8.850;2024-03-22T09:32:30;863.83;;;781.92;;
24305;SDS011;12423;48.768;8.850;2024-03-22T09:34:56;880.60;;;797.88;;
24305;SDS011;12423;48.768;8.850;2024-03-22T09:37:23;870.90;;;788.47;;
24305;SDS011;12423;48.768;8.850;2024-03-22T09:39:49;874.90;;;792.75;;
24305;SDS011;12423;48.768;8.850;2024-03-22T09:42:16;884.80;;;802.25;;
24305;SDS011;12423;48.768;8.850;2024-03-22T09:44:42;894.78;;;812.08;;
24305;SDS011;12423;48.768;8.850;2024-03-22T09:47:14;908.55;;;825.13;;
24305;SDS011;12423;48.768;8.850;2024-03-22T09:49:41;903.30;;;820.15;;
24305;SDS011;12423;48.768;8.850;2024-03-22T09:52:11;921.75;;;837.92;;
24305;SDS011;12423;48.768;8.850;2024-03-22T09:54:37;926.95;;;842.95;;
24305;SDS011;12423;48.768;8.850;2024-03-22T09:57:04;931.50;;;847.58;;
24305;SDS011;12423;48.768;8.850;2024-03-22T09:59:32;930.20;;;846.05;;
24305;SDS011;12423;48.768;8.850;2024-03-22T10:01:59;926.30;;;842.30;;
24305;SDS011;12423;48.768;8.850;2024-03-22T10:04:25;922.17;;;838.47;;
24305;SDS011;12423;48.768;8.850;2024-03-22T10:06:53;924.45;;;840.58;;
24305;SDS011;12423;48.768;8.850;2024-03-22T10:09:19;939.83;;;855.28;;
24305;SDS011;12423;48.768;8.850;2024-03-22T10:11:54;952.60;;;867.67;;
24305;SDS011;12423;48.768;8.850;2024-03-22T10:14:19;952.40;;;867.23;;
24305;SDS011;12423;48.768;8.850;2024-03-22T10:16:46;957.63;;;872.58;;
24305;SDS011;12423;48.768;8.850;2024-03-22T10:19:12;961.25;;;876.05;;
24305;SDS011;12423;48.768;8.850;2024-03-22T10:21:38;958.63;;;873.35;;
24305;SDS011;12423;48.768;8.850;2024-03-22T10:24:05;965.42;;;880.40;;
24305;SDS011;12423;48.768;8.850;2024-03-22T10:26:33;968.67;;;883.28;;
24305;SDS011;12423;48.768;8.850;2024-03-22T10:28:59;971.43;;;886.13;;
24305;SDS011;12423;48.768;8.850;2024-03-22T10:31:25;979.15;;;893.50;;
24305;SDS011;12423;48.768;8.850;2024-03-22T10:33:53;981.97;;;896.25;;
24305;SDS011;12423;48.768;8.850;2024-03-22T10:36:20;981.85;;;895.85;;
24305;SDS011;12423;48.768;8.850;2024-03-22T10:38:46;988.10;;;902.17;;
24305;SDS011;12423;48.768;8.850;2024-03-22T10:41:17;1004.53;;;917.55;;
24305;SDS011;12423;48.768;8.850;2024-03-22T10:43:42;1010.75;;;923.80;;
24305;SDS011;12423;48.768;8.850;2024-03-22T10:46:09;1022.30;;;934.60;;
24305;SDS011;12423;48.768;8.850;2024-03-22T10:48:35;1033.50;;;945.35;;
24305;SDS011;12423;48.768;8.850;2024-03-22T10:51:02;1045.05;;;956.58;;
24305;SDS011;12423;48.768;8.850;2024-03-22T10:53:28;1058.00;;;968.72;;
24305;SDS011;12423;48.768;8.850;2024-03-22T10:55:57;1080.78;;;990.35;;
24305;SDS011;12423;48.768;8.850;2024-03-22T10:58:26;1099.35;;;999.90;;
24305;SDS011;12423;48.768;8.850;2024-03-22T11:00:53;1105.60;;;999.90;;
24305;SDS011;12423;48.768;8.850;2024-03-22T11:03:20;1124.28;;;999.90;;
24305;SDS011;12423;48.768;8.850;2024-03-22T11:05:49;1139.18;;;999.90;;
24305;SDS011;12423;48.768;8.850;2024-03-22T11:08:22;1156.57;;;999.90;;
24305;SDS011;12423;48.768;8.850;2024-03-22T11:10:49;1153.07;;;999.90;;
24305;SDS011;12423;48.768;8.850;2024-03-22T11:13:15;1153.73;;;999.90;;
24305;SDS011;12423;48.768;8.850;2024-03-22T11:15:44;1168.93;;;999.90;;
24305;SDS011;12423;48.768;8.850;2024-03-22T11:18:09;1177.03;;;999.90;;
24305;SDS011;12423;48.768;8.850;2024-03-22T11:20:36;1186.20;;;999.90;;
24305;SDS011;12423;48.768;8.850;2024-03-22T11:23:03;1185.18;;;999.90;;
24305;SDS011;12423;48.768;8.850;2024-03-22T11:25:31;1184.83;;;999.90;;
24305;SDS011;12423;48.768;8.850;2024-03-22T11:27:57;1180.88;;;999.90;;
24305;SDS011;12423;48.768;8.850;2024-03-22T11:30:23;1177.95;;;999.90;;
24305;SDS011;12423;48.768;8.850;2024-03-22T11:32:50;1179.45;;;999.90;;
24305;SDS011;12423;48.768;8.850;2024-03-22T11:35:17;1173.93;;;999.90;;
24305;SDS011;12423;48.768;8.850;2024-03-22T11:37:43;1167.50;;;999.90;;
24305;SDS011;12423;48.768;8.850;2024-03-22T11:40:09;1163.77;;;999.90;;
24305;SDS011;12423;48.768;8.850;2024-03-22T11:42:35;1158.78;;;999.90;;
24305;SDS011;12423;48.768;8.850;2024-03-22T11:45:02;1157.90;;;999.90;;
24305;SDS011;12423;48.768;8.850;2024-03-22T11:47:28;1146.30;;;999.90;;
24305;SDS011;12423;48.768;8.850;2024-03-22T11:49:56;1146.97;;;999.90;;
24305;SDS011;12423;48.768;8.850;2024-03-22T11:52:23;1126.22;;;999.90;;
24305;SDS011;12423;48.768;8.850;2024-03-22T11:54:50;1113.38;;;999.90;;
24305;SDS011;12423;48.768;8.850;2024-03-22T11:57:17;1113.50;;;999.90;;
24305;SDS011;12423;48.768;8.850;2024-03-22T11:59:44;1120.80;;;999.90;;
24305;SDS011;12423;48.768;8.850;2024-03-22T12:02:09;1126.32;;;999.90;;
24305;SDS011;12423;48.768;8.850;2024-03-22T12:04:40;1139.78;;;999.90;;
24305;SDS011;12423;48.768;8.850;2024-03-22T12:07:07;1151.63;;;999.90;;
24305;SDS011;12423;48.768;8.850;2024-03-22T12:09:35;1143.03;;;999.90;;
24305;SDS011;12423;48.768;8.850;2024-03-22T12:12:00;1147.03;;;999.90;;
24305;SDS011;12423;48.768;8.850;2024-03-22T12:14:27;1146.60;;;999.90;;
24305;SDS011;12423;48.768;8.850;2024-03-22T12:16:52;1136.78;;;999.90;;
24305;SDS011;12423;48.768;8.850;2024-03-22T12:19:19;1137.25;;;999.90;;
24305;SDS011;12423;48.768;8.850;2024-03-22T12:21:44;1136.65;;;999.90;;
24305;SDS011;12423;48.768;8.850;2024-03-22T12:24:12;1136.13;;;999.90;;
24305;SDS011;12423;48.768;8.850;2024-03-22T12:26:38;1127.70;;;999.90;;
24305;SDS011;12423;48.768;8.850;2024-03-22T12:29:05;1121.25;;;999.90;;
24305;SDS011;12423;48.768;8.850;2024-03-22T12:31:31;1116.87;;;999.90;;
24305;SDS011;12423;48.768;8.850;2024-03-22T12:33:58;1125.57;;;999.90;;
24305;SDS011;12423;48.768;8.850;2024-03-22T12:36:24;1123.80;;;999.90;;
24305;SDS011;12423;48.768;8.850;2024-03-22T12:38:51;1121.10;;;999.90;;
24305;SDS011;12423;48.768;8.850;2024-03-22T12:41:17;1122.05;;;999.90;;
24305;SDS011;12423;48.768;8.850;2024-03-22T12:43:44;1126.95;;;999.90;;
24305;SDS011;12423;48.768;8.850;2024-03-22T12:46:10;1130.60;;;999.90;;
24305;SDS011;12423;48.768;8.850;2024-03-22T12:48:37;1144.60;;;999.90;;
24305;SDS011;12423;48.768;8.850;2024-03-22T12:51:02;1149.40;;;999.90;;
24305;SDS011;12423;48.768;8.850;2024-03-22T12:53:29;1146.45;;;999.90;;
24305;SDS011;12423;48.768;8.850;2024-03-22T12:55:55;1156.80;;;999.90;;
24305;SDS011;12423;48.768;8.850;2024-03-22T12:58:23;1165.10;;;999.90;;
24305;SDS011;12423;48.768;8.850;2024-03-22T13:00:48;1167.10;;;999.90;;
24305;SDS011;12423;48.768;8.850;2024-03-22T13:03:15;1177.93;;;999.90;;
24305;SDS011;12423;48.768;8.850;2024-03-22T13:05:41;1178.17;;;999.90;;
24305;SDS011;12423;48.768;8.850;2024-03-22T13:08:07;1188.05;;;999.90;;
24305;SDS011;12423;48.768;8.850;2024-03-22T13:10:33;1200.38;;;999.90;;
24305;SDS011;12423;48.768;8.850;2024-03-22T13:12:59;1202.25;;;999.90;;
24305;SDS011;12423;48.768;8.850;2024-03-22T13:15:26;1216.68;;;999.90;;
24305;SDS011;12423;48.768;8.850;2024-03-22T13:17:53;1228.18;;;999.90;;
24305;SDS011;12423;48.768;8.850;2024-03-22T13:20:21;1235.18;;;999.90;;
24305;SDS011;12423;48.768;8.850;2024-03-22T13:22:48;1246.63;;;999.90;;
24305;SDS011;12423;48.768;8.850;2024-03-22T13:25:14;1244.03;;;999.90;;
24305;SDS011;12423;48.768;8.850;2024-03-22T13:27:40;1243.40;;;999.90;;
24305;SDS011;12423;48.768;8.850;2024-03-22T13:30:07;1243.75;;;999.90;;
24305;SDS011;12423;48.768;8.850;2024-03-22T13:32:36;1237.50;;;999.90;;
24305;SDS011;12423;48.768;8.850;2024-03-22T13:35:03;1232.75;;;999.90;;
24305;SDS011;12423;48.768;8.850;2024-03-22T13:37:29;1228.03;;;999.90;;
24305;SDS011;12423;48.768;8.850;2024-03-22T13:39:56;1228.63;;;999.90;;
24305;SDS011;12423;48.768;8.850;2024-03-22T13:42:22;1226.77;;;999.90;;
24305;SDS011;12423;48.768;8.850;2024-03-22T13:44:49;1223.65;;;999.90;;
24305;SDS011;12423;48.768;8.850;2024-03-22T13:47:15;1228.03;;;999.90;;
24305;SDS011;12423;48.768;8.850;2024-03-22T13:49:44;1230.53;;;999.90;;
24305;SDS011;12423;48.768;8.850;2024-03-22T13:52:10;1224.47;;;999.90;;
24305;SDS011;12423;48.768;8.850;2024-03-22T13:54:37;1222.37;;;999.90;;